Costa Fortuna — IBNY — position and weather

sailwx.info

Track history (hours):
 
Tides and Currents Weather Stations Pressure Air Temp Water Temp Dewpoint Dewpoint Depression Visibility Wind Speed Wind Dir Waves Ship Positions

Costa Fortuna

Last reported at 2020-Jan-14 14:40 UTC. Time now 2020-Jan-18 15:26 UTC.
Position N 01°18' E 104°21'.

Length 272 m; draft 8.2 m.

Type: Ship. MMSI: 247094800.

Date/timePositionNaut miles runAvg speedWind from/ knotsBaromVisibWave heightAir tempDewpointWater temp
2020-Jan-14 14:40N 01°18' E 104°21'316.0
2020-Jan-14 14:30N 01°17' E 104°18'1717.0
2020-Jan-14 13:30N 01°14' E 104°02'10 6.8
2020-Jan-14 12:00N 01°16' E 103°52'0 0.0
2020-Jan-14 11:30N 01°16' E 103°52'0 0.0
2020-Jan-14 11:00N 01°16' E 103°52'0 0.0
2020-Jan-14 10:01N 01°16' E 103°52'0 0.0
2020-Jan-14 07:30N 01°16' E 103°52'0 0.0
2020-Jan-14 06:00N 01°16' E 103°52'0 0.0
2020-Jan-14 05:30N 01°16' E 103°52'0 0.0
2020-Jan-14 01:00N 01°16' E 103°52'20 4.3
2020-Jan-13 20:30N 01°05' E 103°35'  
2020-Jan-06 13:00N 01°11' E 103°49'5 9.6
2020-Jan-06 12:31N 01°14' E 103°52'2 0.6
2020-Jan-06 09:29N 01°16' E 103°52'0 0.0
2020-Jan-06 08:59N 01°16' E 103°52'0 0.0
2020-Jan-06 07:29N 01°16' E 103°52'0 0.0
2020-Jan-06 03:59N 01°16' E 103°52'0 0.0
2020-Jan-06 03:29N 01°16' E 103°52'0 0.0
2020-Jan-06 01:23N 01°16' E 103°52'0 0.0
2020-Jan-05 23:59N 01°16' E 103°52'0 0.0
2020-Jan-05 23:30N 01°16' E 103°52'2 4.0
2020-Jan-05 23:00N 01°14' E 103°53'611.3
2020-Jan-05 22:30N 01°15' E 103°58'816.1
2020-Jan-05 22:00N 01°17' E 104°06'  
Track history (hours):
 
Tides and Currents Weather Stations Pressure Air Temp Water Temp Dewpoint Dewpoint Depression Visibility Wind Speed Wind Dir Waves Ship Positions

Costa Fortuna

Last reported at 2020-Jan-14 14:40 UTC. Time now 2020-Jan-18 15:26 UTC.
Position N 01°18' E 104°21'.

Length 272 m; draft 8.2 m.

Type: Ship. MMSI: 247094800.

Date/timePositionNaut miles runAvg speedWind from/ knotsBaromVisibWave heightAir tempDewpointWater temp
2020-Jan-14 14:40N 01°18' E 104°21'316.0
2020-Jan-14 14:30N 01°17' E 104°18'1717.0
2020-Jan-14 13:30N 01°14' E 104°02'10 6.8
2020-Jan-14 12:00N 01°16' E 103°52'0 0.0
2020-Jan-14 11:30N 01°16' E 103°52'0 0.0
2020-Jan-14 11:00N 01°16' E 103°52'0 0.0
2020-Jan-14 10:01N 01°16' E 103°52'0 0.0
2020-Jan-14 07:30N 01°16' E 103°52'0 0.0
2020-Jan-14 06:00N 01°16' E 103°52'0 0.0
2020-Jan-14 05:30N 01°16' E 103°52'0 0.0
2020-Jan-14 01:00N 01°16' E 103°52'20 4.3
2020-Jan-13 20:30N 01°05' E 103°35'  
2020-Jan-06 13:00N 01°11' E 103°49'5 9.6
2020-Jan-06 12:31N 01°14' E 103°52'2 0.6
2020-Jan-06 09:29N 01°16' E 103°52'0 0.0
2020-Jan-06 08:59N 01°16' E 103°52'0 0.0
2020-Jan-06 07:29N 01°16' E 103°52'0 0.0
2020-Jan-06 03:59N 01°16' E 103°52'0 0.0
2020-Jan-06 03:29N 01°16' E 103°52'0 0.0
2020-Jan-06 01:23N 01°16' E 103°52'0 0.0
2020-Jan-05 23:59N 01°16' E 103°52'0 0.0
2020-Jan-05 23:30N 01°16' E 103°52'2 4.0
2020-Jan-05 23:00N 01°14' E 103°53'611.3
2020-Jan-05 22:30N 01°15' E 103°58'816.1
2020-Jan-05 22:00N 01°17' E 104°06'  

Dump ship's entire track history